createdAt,value
2022-10-13T00:04:22.587Z,1019.24
2022-10-13T00:19:22.704Z,1019.09
2022-10-13T00:34:23.457Z,1019.05
2022-10-13T00:49:23.937Z,1019.03
2022-10-13T01:04:24.583Z,1019.01
2022-10-13T01:19:24.179Z,1018.93
2022-10-13T01:34:24.310Z,1018.80
2022-10-13T01:49:24.989Z,1018.70
2022-10-13T02:04:25.563Z,1018.31
2022-10-13T02:19:25.723Z,1018.27
2022-10-13T02:34:25.833Z,1018.23
2022-10-13T02:49:26.416Z,1017.92
2022-10-13T03:04:27.097Z,1017.94
2022-10-13T03:19:27.141Z,1017.78
2022-10-13T03:34:27.826Z,1017.82
2022-10-13T03:49:28.427Z,1017.72
2022-10-13T04:04:28.555Z,1017.60
2022-10-13T04:19:28.654Z,1017.64
2022-10-13T04:34:28.812Z,1017.44
2022-10-13T04:49:29.386Z,1017.50
2022-10-13T05:04:29.490Z,1017.46
2022-10-13T05:19:29.087Z,1017.27
2022-10-13T05:34:29.753Z,1017.24
2022-10-13T05:49:30.830Z,1017.10
2022-10-13T06:04:30.982Z,1017.08
2022-10-13T06:19:31.564Z,1017.26
2022-10-13T06:34:33.177Z,1017.16
2022-10-13T06:49:32.793Z,1017.09
2022-10-13T07:04:32.918Z,1017.21
2022-10-13T07:19:32.994Z,1017.06
2022-10-13T07:34:33.140Z,1016.92
2022-10-13T07:49:33.235Z,1017.03
2022-10-13T08:04:33.897Z,1017.05
2022-10-13T08:19:34.461Z,1016.78
2022-10-13T08:34:34.597Z,1016.73
2022-10-13T08:49:34.715Z,1016.73
2022-10-13T09:04:35.004Z,1016.55
2022-10-13T09:19:35.374Z,1016.56
2022-10-13T09:34:35.475Z,1016.52
2022-10-13T09:49:35.089Z,1016.54
2022-10-13T10:04:35.236Z,1016.57
2022-10-13T10:19:35.322Z,1016.46
2022-10-13T10:34:35.979Z,1016.28
2022-10-13T10:49:37.015Z,1016.15
2022-10-13T11:04:36.655Z,1015.87
2022-10-13T11:19:37.227Z,1015.96
2022-10-13T11:34:36.847Z,1015.74
2022-10-13T11:49:36.981Z,1015.36
2022-10-13T12:04:37.153Z,1015.36
2022-10-13T12:19:37.685Z,1015.42
2022-10-13T12:34:37.805Z,1015.32
2022-10-13T12:49:37.428Z,1015.31
2022-10-13T13:04:37.997Z,1015.34
2022-10-13T13:19:37.582Z,1015.30
2022-10-13T13:34:37.707Z,1015.03
2022-10-13T13:49:38.384Z,1014.79
2022-10-13T14:04:38.477Z,1014.71
2022-10-13T14:19:39.465Z,1014.63
2022-10-13T14:34:39.922Z,1014.48
2022-10-13T14:49:40.027Z,1014.50
2022-10-13T15:04:40.657Z,1014.51
2022-10-13T15:19:41.682Z,1014.61
2022-10-13T15:34:41.363Z,1014.61
2022-10-13T15:49:41.906Z,1014.54
2022-10-13T16:04:42.105Z,1014.48
2022-10-13T16:19:43.978Z,1014.52
2022-10-13T16:34:44.551Z,1014.42
2022-10-13T16:49:44.681Z,1014.40
2022-10-13T17:04:45.231Z,1014.39
2022-10-13T17:19:45.390Z,1014.25
2022-10-13T17:34:45.946Z,1014.27
2022-10-13T17:49:46.050Z,1014.25
2022-10-13T18:04:45.731Z,1014.16
2022-10-13T18:19:45.846Z,1014.23
2022-10-13T18:34:47.748Z,1014.30
2022-10-13T18:49:49.614Z,1014.22
2022-10-13T19:04:50.196Z,1014.18
2022-10-13T19:19:51.100Z,1014.04
2022-10-13T19:34:53.055Z,1013.95
2022-10-13T19:49:54.445Z,1014.01
2022-10-13T20:04:54.669Z,1013.96
2022-10-13T20:19:56.567Z,1013.91
2022-10-13T20:34:57.427Z,1013.97
2022-10-13T20:49:57.551Z,1013.91
2022-10-13T21:04:57.675Z,1013.93
2022-10-13T21:19:57.786Z,1013.91
2022-10-13T21:34:58.016Z,1013.83
2022-10-13T21:49:58.018Z,1013.84
2022-10-13T22:04:58.126Z,1013.96
2022-10-13T22:19:58.239Z,1013.91
2022-10-13T22:34:59.648Z,1013.91
2022-10-13T22:50:00.746Z,1013.67
2022-10-13T23:05:00.377Z,1013.64
2022-10-13T23:20:02.248Z,1013.62
2022-10-13T23:35:01.844Z,1013.61
2022-10-13T23:50:02.489Z,1013.42
